»·PEaware :: DAL1911 KBUR-KSLC

DAL1911 :: KBUR-KSLC

FLIGHT INFORMATION

Flight Status: Arrived
Operator:
Delta Air Lines
More flights by this operator :: More flights under this callsign
Pilot: Kevin M. (7)
Aircraft: BOEING 737-800
(B738)
More flights by this aircraft type
Origin: KBUR Bob Hope-Burbank
United States
Destination: KSLC Salt Lake City Intl
United States
More flights between these airports :: More routes between these airports
Route: +SLAPP1 LAS Q70 BLIPP Q842 WINEN MLF DELTA5
File this flight plan on PilotEdge
Remarks:
Altitude:
(Current/Filed)
37,000ft
Speed:
(Current/Filed)
468kts
Departed: 14-Oct-19 12:10 PM
Arrived: 14-Oct-19 01:26 PM
Distance/Time
Traveled:
498nm/1:16
Distance/Time
To Go:
Arrived

Flight Plot

Page will automatically refresh every two minutes.

Flight plan parsing failed; only flown route is shown


Map Options




Map Legend


Flown Route
Filed Route
Departure Airport
Arrival Airport
Navaid (VOR, NDB)
Fix

Horizontal Profiles

Position Reports

Time Latitude Longitude Heading Altitude Ground
Speed
14-Oct-19 11:48 34.196809 -118.351970 179 699ft 0kts
14-Oct-19 11:49 34.196809 -118.351970 179 699ft 0kts
14-Oct-19 11:50 34.196809 -118.351970 179 699ft 0kts
14-Oct-19 11:51 34.196809 -118.351970 179 699ft 0kts
14-Oct-19 11:52 34.196809 -118.351970 179 699ft 0kts
14-Oct-19 11:53 34.196809 -118.351970 179 699ft 0kts
14-Oct-19 11:54 34.196809 -118.351970 179 699ft 0kts
14-Oct-19 11:55 34.196809 -118.351970 179 699ft 0kts
14-Oct-19 11:56 34.196809 -118.351970 179 699ft 0kts
14-Oct-19 11:57 34.196809 -118.351970 179 699ft 0kts
14-Oct-19 11:58 34.196809 -118.351970 179 699ft 0kts
14-Oct-19 11:59 34.196809 -118.351970 179 699ft 0kts
14-Oct-19 12:00 34.196809 -118.351970 179 699ft 0kts
14-Oct-19 12:01 34.196809 -118.351970 179 699ft 0kts
14-Oct-19 12:02 34.197189 -118.351837 268 700ft 0kts
14-Oct-19 12:03 34.197182 -118.351743 271 699ft 0kts
14-Oct-19 12:04 34.197182 -118.351743 271 699ft 0kts
14-Oct-19 12:05 34.197174 -118.352498 269 701ft 13kts
14-Oct-19 12:06 34.200645 -118.355899 347 724ft 24kts
14-Oct-19 12:07 34.207784 -118.357870 347 758ft 22kts
14-Oct-19 12:08 34.211552 -118.359063 317 775ft 1kts
14-Oct-19 12:09 34.208183 -118.359334 166 762ft 88kts
14-Oct-19 12:10 34.166330 -118.360066 222 2446ft 184kts
14-Oct-19 12:11 34.180500 -118.410467 346 4284ft 231kts
14-Oct-19 12:12 34.254297 -118.398322 10 6718ft 276kts
14-Oct-19 12:13 34.331061 -118.380284 11 9741ft 288kts
14-Oct-19 12:14 34.415538 -118.354579 21 11117ft 351kts
14-Oct-19 12:15 34.506351 -118.289524 38 12326ft 403kts
14-Oct-19 12:16 34.588627 -118.206987 38 14611ft 413kts
14-Oct-19 12:17 34.663857 -118.101493 65 17039ft 429kts
14-Oct-19 12:18 34.692944 -117.957417 81 19064ft 451kts
14-Oct-19 12:19 34.701948 -117.802166 83 20857ft 470kts
14-Oct-19 12:20 34.709181 -117.640904 84 22675ft 484kts
14-Oct-19 12:21 34.723506 -117.477143 71 24298ft 494kts
14-Oct-19 12:22 34.765515 -117.315617 69 25792ft 509kts
14-Oct-19 12:23 34.809536 -117.149340 69 27264ft 521kts
14-Oct-19 12:24 34.854287 -116.979248 70 28391ft 539kts
14-Oct-19 12:25 34.901139 -116.802976 68 29880ft 547kts
14-Oct-19 12:26 34.980209 -116.649359 46 32242ft 528kts
14-Oct-19 12:28 35.077226 -116.520367 44 34627ft 507kts
14-Oct-19 12:29 35.172254 -116.394703 44 36168ft 502kts
14-Oct-19 12:30 35.266137 -116.270129 44 37023ft 504kts
14-Oct-19 12:31 35.360326 -116.144610 44 37027ft 500kts
14-Oct-19 12:32 35.454074 -116.019291 44 37029ft 500kts
14-Oct-19 12:33 35.548018 -115.893172 44 37028ft 499kts
14-Oct-19 12:34 35.641600 -115.766993 45 37049ft 500kts
14-Oct-19 12:35 35.734096 -115.639089 45 37068ft 501kts
14-Oct-19 12:36 35.826495 -115.511685 45 37065ft 501kts
14-Oct-19 12:37 35.918969 -115.383696 45 37055ft 499kts
14-Oct-19 12:38 36.011148 -115.255705 45 37049ft 500kts
14-Oct-19 12:39 36.106406 -115.130766 38 37041ft 505kts
14-Oct-19 12:40 36.214132 -115.015125 37 37021ft 520kts
14-Oct-19 12:41 36.324675 -114.895689 38 37017ft 529kts
14-Oct-19 12:42 36.434833 -114.776171 38 37021ft 528kts
14-Oct-19 12:43 36.545671 -114.655359 38 37023ft 529kts
14-Oct-19 12:44 36.655982 -114.534893 38 37025ft 529kts
14-Oct-19 12:45 36.772418 -114.425905 27 37036ft 523kts
14-Oct-19 12:45 36.874916 -114.345842 28 37055ft 524kts
14-Oct-19 12:47 37.017292 -114.233748 27 37071ft 496kts
14-Oct-19 12:48 37.127878 -114.146365 31 37076ft 463kts
14-Oct-19 12:48 37.219128 -114.074019 31 37076ft 466kts
14-Oct-19 12:50 37.346811 -113.972509 31 37069ft 465kts
14-Oct-19 12:51 37.455673 -113.885564 31 37072ft 465kts
14-Oct-19 12:51 37.546661 -113.812685 31 37073ft 465kts
14-Oct-19 12:52 37.655696 -113.725066 31 37090ft 466kts
14-Oct-19 12:53 37.764623 -113.637210 31 37128ft 466kts
14-Oct-19 12:54 37.873548 -113.549050 31 37129ft 466kts
14-Oct-19 12:55 37.977013 -113.451237 40 37127ft 467kts
14-Oct-19 12:56 38.073678 -113.340833 40 37126ft 468kts
14-Oct-19 12:57 38.170399 -113.230764 40 37124ft 467kts
14-Oct-19 12:58 38.266879 -113.120533 40 37117ft 468kts
14-Oct-19 12:59 38.366476 -113.015240 28 37120ft 466kts
14-Oct-19 13:00 38.484557 -112.946928 19 37121ft 470kts
14-Oct-19 13:01 38.606344 -112.882030 19 37119ft 483kts
14-Oct-19 13:02 38.731574 -112.814925 19 37122ft 497kts
14-Oct-19 13:03 38.860526 -112.745485 19 37123ft 504kts
14-Oct-19 13:04 38.984634 -112.678300 19 37106ft 450kts
14-Oct-19 13:05 39.092942 -112.619643 22 37104ft 417kts
14-Oct-19 13:06 39.197464 -112.562774 22 37070ft 415kts
14-Oct-19 13:07 39.303137 -112.506036 17 35576ft 411kts
14-Oct-19 13:08 39.415865 -112.467841 13 31693ft 428kts
14-Oct-19 13:09 39.529417 -112.430210 12 29035ft 411kts
14-Oct-19 13:10 39.637683 -112.394153 11 26629ft 395kts
14-Oct-19 13:11 39.742126 -112.359259 11 24246ft 383kts
14-Oct-19 13:12 39.845783 -112.324539 11 21832ft 396kts
14-Oct-19 13:13 39.950500 -112.289296 12 19347ft 383kts
14-Oct-19 13:14 40.051981 -112.254300 20 17045ft 372kts
14-Oct-19 13:15 40.141513 -112.181827 31 16876ft 384kts
14-Oct-19 13:16 40.231592 -112.105723 31 13845ft 385kts
14-Oct-19 13:17 40.319853 -112.033145 31 11633ft 359kts
14-Oct-19 13:18 40.401282 -111.978341 4 9845ft 308kts
14-Oct-19 13:19 40.481728 -111.973512 1 9017ft 275kts
14-Oct-19 13:20 40.558481 -111.970772 357 8598ft 273kts
14-Oct-19 13:21 40.626751 -111.977162 352 7760ft 227kts
14-Oct-19 13:22 40.681759 -111.985120 354 6260ft 181kts
14-Oct-19 13:23 40.728519 -111.990347 355 5117ft 158kts
14-Oct-19 13:24 40.772537 -111.995223 354 4310ft 158kts
14-Oct-19 13:25 40.795118 -111.996313 51 4235ft 5kts
14-Oct-19 13:26 40.791580 -111.995194 173 4235ft 24kts
14-Oct-19 13:27 40.791427 -111.987169 84 4235ft 31kts
14-Oct-19 13:28 40.789355 -111.984865 199 4235ft 2kts
14-Oct-19 13:29 40.789326 -111.984878 199 4235ft 0kts

Navigation Log

Ident Type
Flight plan parsing failed, navigation log unavailable